Time;durP1;ratioP1;P1;durP2;ratioP2;P2;SDS_P1;SDS_P2;PMS_P1;PMS_P2;Temp;Humidity;BMP_temperature;BMP_pressure;BME280_temperature;BME280_humidity;BME280_pressure;Samples;Min_cycle;Max_cycle;Signal;HPM_P1;HPM_P2
2024/01/06 00:00:37;;;;;;;18.10;8.90;;;;;;;;;;103787;1292;545052;-73
2024/01/06 00:04:14;;;;;;;16.20;7.80;;;;;;;;;;103651;1292;544974;-72
2024/01/06 00:07:52;;;;;;;14.40;7.50;;;;;;;;;;103669;1289;544812;-74
2024/01/06 00:11:29;;;;;;;16.60;9.20;;;;;;;;;;104243;1286;546042;-73
2024/01/06 00:15:07;;;;;;;14.50;8.00;;;;;;;;;;103496;1295;545021;-71
2024/01/06 00:18:45;;;;;;;52.80;24.70;;;;;;;;;;103750;1290;545770;-72
2024/01/06 00:22:22;;;;;;;21.10;9.60;;;;;;;;;;103766;1289;545677;-72
2024/01/06 00:25:56;;;;;;;14.20;6.40;;;;;;;;;;103813;1292;544835;-73
2024/01/06 00:29:33;;;;;;;12.60;6.40;;;;;;;;;;103773;1292;544757;-73
2024/01/06 00:33:15;;;;;;;13.70;6.90;;;;;;;;;;103978;1289;545110;-72
2024/01/06 00:36:51;;;;;;;12.10;5.50;;;;;;;;;;103683;1291;544778;-72
2024/01/06 00:40:28;;;;;;;13.90;7.40;;;;;;;;;;103611;1292;545072;-72
2024/01/06 00:44:07;;;;;;;13.80;7.20;;;;;;;;;;103670;1290;544756;-72
2024/01/06 00:47:50;;;;;;;11.30;6.30;;;;;;;;;;103469;1298;548010;-73
2024/01/06 00:51:22;;;;;;;11.20;5.30;;;;;;;;;;103723;1293;545073;-72
2024/01/06 00:54:59;;;;;;;13.70;5.90;;;;;;;;;;103757;1290;545170;-71
2024/01/06 00:58:37;;;;;;;11.20;4.90;;;;;;;;;;103808;1289;545300;-72
2024/01/06 01:02:14;;;;;;;12.40;5.80;;;;;;;;;;103547;1294;544997;-72
2024/01/06 01:05:52;;;;;;;13.20;6.50;;;;;;;;;;103782;1289;544857;-73
2024/01/06 01:09:25;;;;;;;12.50;5.50;;;;;;;;;;103752;1291;544888;-73
2024/01/06 01:13:06;;;;;;;13.00;6.90;;;;;;;;;;103677;1289;544771;-73
2024/01/06 01:16:44;;;;;;;46.00;28.00;;;;;;;;;;103739;1290;545004;-72
2024/01/06 01:20:22;;;;;;;46.20;29.00;;;;;;;;;;103737;1289;546257;-71
2024/01/06 01:23:59;;;;;;;51.60;31.40;;;;;;;;;;103728;1289;545940;-72
2024/01/06 01:27:33;;;;;;;48.90;30.70;;;;;;;;;;103805;1289;544773;-73
2024/01/06 01:31:14;;;;;;;45.10;30.70;;;;;;;;;;103717;1292;545493;-72
2024/01/06 01:34:51;;;;;;;46.90;31.20;;;;;;;;;;103778;1290;545007;-72
2024/01/06 01:38:28;;;;;;;47.50;30.70;;;;;;;;;;103757;1289;544704;-72
2024/01/06 01:42:06;;;;;;;49.20;32.80;;;;;;;;;;103617;1290;545007;-71
2024/01/06 01:45:45;;;;;;;48.40;31.30;;;;;;;;;;103652;1292;545545;-72
2024/01/06 01:49:22;;;;;;;49.80;31.40;;;;;;;;;;103693;1291;545023;-71
2024/01/06 01:52:59;;;;;;;43.80;30.10;;;;;;;;;;103846;1292;544806;-72
2024/01/06 01:56:36;;;;;;;50.50;33.50;;;;;;;;;;104530;1283;544787;-71
2024/01/06 02:00:13;;;;;;;48.80;32.80;;;;;;;;;;103652;1291;545549;-71
2024/01/06 02:03:47;;;;;;;48.70;32.70;;;;;;;;;;103711;1291;545592;-72
2024/01/06 02:07:28;;;;;;;46.50;30.70;;;;;;;;;;103768;1292;545003;-71
2024/01/06 02:11:06;;;;;;;48.40;31.80;;;;;;;;;;103877;1291;544953;-71
2024/01/06 02:14:43;;;;;;;52.70;34.10;;;;;;;;;;103764;1289;544983;-73
2024/01/06 02:18:20;;;;;;;50.70;33.00;;;;;;;;;;103663;1291;544821;-71
2024/01/06 02:21:58;;;;;;;48.10;31.80;;;;;;;;;;103657;1302;545603;-72
2024/01/06 02:25:33;;;;;;;51.00;32.50;;;;;;;;;;104473;1288;545054;-73
2024/01/06 02:29:12;;;;;;;48.40;30.50;;;;;;;;;;103769;1292;545356;-72
2024/01/06 02:32:50;;;;;;;46.20;29.80;;;;;;;;;;103619;1291;544780;-73
2024/01/06 02:36:24;;;;;;;50.90;32.10;;;;;;;;;;104140;1285;544728;-72
2024/01/06 02:40:06;;;;;;;53.30;35.20;;;;;;;;;;103642;1289;544978;-71
2024/01/06 02:43:42;;;;;;;56.70;34.90;;;;;;;;;;103800;1289;544907;-71
2024/01/06 02:47:21;;;;;;;49.50;32.60;;;;;;;;;;103821;1288;545537;-71
2024/01/06 02:50:58;;;;;;;53.80;33.20;;;;;;;;;;103726;1289;545909;-71
2024/01/06 02:54:35;;;;;;;48.00;31.00;;;;;;;;;;103774;1289;545605;-73
2024/01/06 02:58:12;;;;;;;48.10;31.60;;;;;;;;;;103771;1290;546257;-72
2024/01/06 03:01:50;;;;;;;51.60;34.10;;;;;;;;;;103751;1292;544798;-72
2024/01/06 03:05:28;;;;;;;53.80;34.60;;;;;;;;;;103843;1290;544906;-72
2024/01/06 03:09:05;;;;;;;52.10;34.70;;;;;;;;;;103599;1291;544966;-72
2024/01/06 03:12:42;;;;;;;54.70;34.10;;;;;;;;;;103847;1295;545454;-72
2024/01/06 03:16:20;;;;;;;56.70;37.00;;;;;;;;;;103737;1291;545342;-73
2024/01/06 03:19:57;;;;;;;60.10;38.90;;;;;;;;;;103768;1295;545838;-72
2024/01/06 03:23:40;;;;;;;64.80;38.80;;;;;;;;;;103633;1301;547991;-71
2024/01/06 03:27:12;;;;;;;56.70;37.20;;;;;;;;;;103745;1290;545372;-72
2024/01/06 03:30:50;;;;;;;58.80;36.60;;;;;;;;;;103594;1296;544940;-72
2024/01/06 03:34:27;;;;;;;57.80;37.10;;;;;;;;;;103843;1289;544908;-72
2024/01/06 03:38:00;;;;;;;57.80;38.00;;;;;;;;;;103808;1288;545402;-72
2024/01/06 03:41:42;;;;;;;57.90;37.30;;;;;;;;;;104333;1284;544896;-73
2024/01/06 03:45:19;;;;;;;56.60;36.80;;;;;;;;;;103796;1289;544981;-72
2024/01/06 03:48:57;;;;;;;53.50;34.90;;;;;;;;;;103690;1291;544915;-71
2024/01/06 03:52:34;;;;;;;55.40;36.40;;;;;;;;;;103549;1295;546381;-72
2024/01/06 03:56:13;;;;;;;65.10;39.80;;;;;;;;;;103745;1288;545085;-72
2024/01/06 03:59:49;;;;;;;68.50;41.00;;;;;;;;;;104101;1285;545160;-72
2024/01/06 04:03:27;;;;;;;64.30;38.80;;;;;;;;;;103828;1289;544986;-73
2024/01/06 04:07:06;;;;;;;60.60;37.70;;;;;;;;;;103792;1288;544763;-71
2024/01/06 04:10:42;;;;;;;58.20;35.60;;;;;;;;;;103719;1289;544985;-71
2024/01/06 04:14:19;;;;;;;60.50;37.90;;;;;;;;;;104596;1282;546010;-72
2024/01/06 04:18:03;;;;;;;63.30;40.30;;;;;;;;;;103560;1292;547857;-72
2024/01/06 04:21:34;;;;;;;58.30;36.80;;;;;;;;;;103747;1292;545594;-72
2024/01/06 04:25:11;;;;;;;64.50;40.20;;;;;;;;;;103825;1289;545687;-71
2024/01/06 04:28:49;;;;;;;61.90;37.80;;;;;;;;;;103653;1290;545093;-71
2024/01/06 04:32:26;;;;;;;73.00;45.80;;;;;;;;;;103766;1292;545066;-72
2024/01/06 04:36:03;;;;;;;74.00;48.90;;;;;;;;;;103691;1289;545186;-71
2024/01/06 04:39:41;;;;;;;73.90;49.00;;;;;;;;;;103752;1291;544901;-71
2024/01/06 04:43:18;;;;;;;65.80;40.20;;;;;;;;;;103568;1295;545753;-71
2024/01/06 04:46:56;;;;;;;62.80;38.00;;;;;;;;;;103860;1291;545064;-72
2024/01/06 04:50:33;;;;;;;60.10;37.90;;;;;;;;;;104667;1283;545715;-72
2024/01/06 04:54:11;;;;;;;68.00;38.30;;;;;;;;;;103768;1290;545017;-72
2024/01/06 04:57:49;;;;;;;76.00;49.30;;;;;;;;;;103909;1288;544767;-72
2024/01/06 05:01:26;;;;;;;66.20;42.40;;;;;;;;;;103833;1292;545173;-72
2024/01/06 05:04:59;;;;;;;65.40;39.40;;;;;;;;;;103950;1290;545467;-72
2024/01/06 05:08:44;;;;;;;63.50;38.00;;;;;;;;;;103810;1289;545013;-71
2024/01/06 05:12:18;;;;;;;67.10;40.10;;;;;;;;;;103631;1303;544977;-71
2024/01/06 05:15:55;;;;;;;66.90;38.50;;;;;;;;;;103816;1290;545041;-72
2024/01/06 05:19:29;;;;;;;61.60;37.50;;;;;;;;;;104007;1288;544898;-71
2024/01/06 05:23:10;;;;;;;62.60;36.90;;;;;;;;;;103807;1289;544769;-72
2024/01/06 05:26:48;;;;;;;62.20;39.70;;;;;;;;;;103709;1290;545460;-72
2024/01/06 05:30:27;;;;;;;65.70;39.80;;;;;;;;;;103429;1293;545016;-72
2024/01/06 05:34:04;;;;;;;66.60;37.90;;;;;;;;;;103895;1289;544940;-72
2024/01/06 05:37:40;;;;;;;57.90;35.70;;;;;;;;;;103796;1290;544872;-72
2024/01/06 05:41:18;;;;;;;62.50;37.60;;;;;;;;;;103583;1295;544999;-72
2024/01/06 05:44:55;;;;;;;66.00;38.80;;;;;;;;;;103778;1289;546138;-73
2024/01/06 05:48:33;;;;;;;63.00;39.30;;;;;;;;;;103406;1295;544870;-72
2024/01/06 05:52:10;;;;;;;60.80;36.60;;;;;;;;;;103734;1293;544832;-72
2024/01/06 05:55:48;;;;;;;61.30;35.40;;;;;;;;;;103724;1292;545370;-72
2024/01/06 05:59:25;;;;;;;56.10;34.40;;;;;;;;;;103847;1289;545580;-71
2024/01/06 06:03:03;;;;;;;60.00;37.00;;;;;;;;;;103658;1292;544878;-72
2024/01/06 06:06:40;;;;;;;62.10;37.40;;;;;;;;;;103743;1291;544940;-72
2024/01/06 06:10:18;;;;;;;63.60;37.90;;;;;;;;;;103586;1291;544818;-72
2024/01/06 06:13:55;;;;;;;63.30;37.40;;;;;;;;;;103753;1292;545426;-72
2024/01/06 06:17:33;;;;;;;68.40;36.70;;;;;;;;;;103743;1292;544786;-72
2024/01/06 06:21:10;;;;;;;65.80;36.80;;;;;;;;;;103793;1289;544791;-71
2024/01/06 06:24:48;;;;;;;65.70;39.00;;;;;;;;;;103741;1289;545040;-72
2024/01/06 06:28:25;;;;;;;63.50;39.90;;;;;;;;;;103846;1289;545545;-72
2024/01/06 06:32:03;;;;;;;61.80;37.10;;;;;;;;;;104507;1286;544721;-71
2024/01/06 06:35:40;;;;;;;63.10;37.60;;;;;;;;;;103753;1289;545406;-71
2024/01/06 06:39:18;;;;;;;64.10;37.10;;;;;;;;;;103674;1291;545660;-71
2024/01/06 06:42:55;;;;;;;64.10;36.50;;;;;;;;;;103730;1295;544963;-71
2024/01/06 06:46:33;;;;;;;60.90;36.70;;;;;;;;;;104519;1283;545368;-72
2024/01/06 06:50:06;;;;;;;71.90;41.00;;;;;;;;;;103774;1291;544900;-71
2024/01/06 06:53:47;;;;;;;66.70;38.70;;;;;;;;;;103703;1289;546498;-72
2024/01/06 06:57:25;;;;;;;64.30;36.50;;;;;;;;;;103800;1289;546403;-71
2024/01/06 07:01:02;;;;;;;72.30;44.40;;;;;;;;;;103611;1295;545080;-72
2024/01/06 07:04:40;;;;;;;69.60;42.60;;;;;;;;;;103788;1289;545483;-73
2024/01/06 07:08:18;;;;;;;77.50;47.20;;;;;;;;;;103653;1289;544988;-71
2024/01/06 07:11:54;;;;;;;69.50;43.30;;;;;;;;;;103922;1289;544815;-71
2024/01/06 07:15:32;;;;;;;63.50;38.10;;;;;;;;;;103891;1288;544911;-72
2024/01/06 07:19:10;;;;;;;62.80;37.30;;;;;;;;;;103805;1291;545470;-72
2024/01/06 07:22:47;;;;;;;61.80;35.50;;;;;;;;;;103724;1292;545578;-71
2024/01/06 07:26:25;;;;;;;60.40;37.70;;;;;;;;;;103801;1290;544786;-72
2024/01/06 07:30:05;;;;;;;66.50;39.20;;;;;;;;;;103457;1293;545358;-72
2024/01/06 07:33:40;;;;;;;60.50;36.70;;;;;;;;;;104251;1286;545099;-71
2024/01/06 07:37:17;;;;;;;62.80;36.90;;;;;;;;;;103736;1292;544967;-72
2024/01/06 07:40:55;;;;;;;54.20;33.10;;;;;;;;;;103781;1289;545684;-71
2024/01/06 07:44:33;;;;;;;61.00;36.40;;;;;;;;;;103881;1290;545020;-71
2024/01/06 07:48:10;;;;;;;64.30;38.40;;;;;;;;;;103653;1291;544997;-72
2024/01/06 07:51:53;;;;;;;57.80;34.90;;;;;;;;;;103456;1291;545403;-72
2024/01/06 07:55:26;;;;;;;62.50;36.10;;;;;;;;;;103831;1289;544790;-71
2024/01/06 07:59:02;;;;;;;60.60;36.40;;;;;;;;;;103681;1290;545626;-72
2024/01/06 08:02:38;;;;;;;59.50;36.30;;;;;;;;;;103730;1289;544978;-72
2024/01/06 08:06:16;;;;;;;66.50;38.60;;;;;;;;;;103651;1289;546122;-72
2024/01/06 08:09:53;;;;;;;61.80;38.80;;;;;;;;;;103728;1292;545433;-71
2024/01/06 08:13:27;;;;;;;61.90;37.00;;;;;;;;;;103760;1289;545229;-71
2024/01/06 08:17:09;;;;;;;64.80;37.90;;;;;;;;;;103863;1288;544999;-71
2024/01/06 08:20:46;;;;;;;60.70;37.10;;;;;;;;;;103733;1289;544956;-71
2024/01/06 08:24:24;;;;;;;62.70;39.70;;;;;;;;;;103852;1290;545608;-72
2024/01/06 08:28:01;;;;;;;67.70;40.60;;;;;;;;;;104193;1286;544897;-72
2024/01/06 08:31:38;;;;;;;61.60;37.10;;;;;;;;;;103682;1292;546152;-71
2024/01/06 08:35:16;;;;;;;59.10;35.80;;;;;;;;;;103981;1286;545128;-71
2024/01/06 08:38:53;;;;;;;61.30;36.50;;;;;;;;;;103787;1290;546191;-71
2024/01/06 08:42:32;;;;;;;64.50;37.90;;;;;;;;;;103803;1289;545489;-72
2024/01/06 08:46:09;;;;;;;59.80;37.80;;;;;;;;;;103749;1289;544925;-71
2024/01/06 08:49:52;;;;;;;71.00;39.10;;;;;;;;;;103504;1292;548906;-72
2024/01/06 08:53:23;;;;;;;63.00;38.00;;;;;;;;;;103796;1295;545720;-72
2024/01/06 08:57:01;;;;;;;58.30;35.60;;;;;;;;;;103729;1295;546030;-70
2024/01/06 09:00:34;;;;;;;101.10;62.50;;;;;;;;;;104170;1285;544860;-71
2024/01/06 09:04:17;;;;;;;64.20;38.20;;;;;;;;;;103715;1286;545578;-71
2024/01/06 09:07:53;;;;;;;64.20;37.80;;;;;;;;;;103757;1289;545031;-71
2024/01/06 09:11:27;;;;;;;61.10;37.70;;;;;;;;;;103666;1289;546070;-72
2024/01/06 09:15:08;;;;;;;57.50;36.30;;;;;;;;;;103833;1289;545309;-71
2024/01/06 09:18:46;;;;;;;60.80;37.70;;;;;;;;;;103771;1292;545003;-72
2024/01/06 09:22:23;;;;;;;62.50;39.40;;;;;;;;;;103733;1289;545822;-72
2024/01/06 09:26:01;;;;;;;60.70;37.30;;;;;;;;;;103635;1292;545429;-72
2024/01/06 09:29:38;;;;;;;59.70;35.80;;;;;;;;;;104191;1286;545044;-71
2024/01/06 09:33:17;;;;;;;57.50;39.40;;;;;;;;;;103625;1292;544713;-71
2024/01/06 09:36:53;;;;;;;79.50;60.40;;;;;;;;;;103752;1292;545409;-71
2024/01/06 09:40:31;;;;;;;85.00;55.30;;;;;;;;;;103942;1289;546252;-71
2024/01/06 09:44:04;;;;;;;63.30;40.40;;;;;;;;;;103757;1289;544769;-71
2024/01/06 09:47:51;;;;;;;56.40;36.80;;;;;;;;;;103534;1292;546114;-71
2024/01/06 09:51:23;;;;;;;69.30;42.40;;;;;;;;;;103583;1292;545049;-71
2024/01/06 09:55:02;;;;;;;59.60;38.00;;;;;;;;;;104448;1285;545922;-71
2024/01/06 09:58:38;;;;;;;53.30;34.20;;;;;;;;;;103690;1290;544930;-70
2024/01/06 10:02:16;;;;;;;59.30;34.70;;;;;;;;;;103614;1292;544955;-71
2024/01/06 10:05:49;;;;;;;66.80;38.10;;;;;;;;;;103633;1291;545613;-71
2024/01/06 10:09:27;;;;;;;51.90;31.40;;;;;;;;;;103575;1302;545048;-71
2024/01/06 10:13:08;;;;;;;65.30;36.90;;;;;;;;;;103426;1295;545963;-70
2024/01/06 10:16:45;;;;;;;49.70;32.20;;;;;;;;;;103671;1289;546095;-71
2024/01/06 10:20:23;;;;;;;76.20;44.30;;;;;;;;;;103581;1291;544828;-71
2024/01/06 10:24:00;;;;;;;59.00;33.90;;;;;;;;;;103508;1289;545605;-70
2024/01/06 10:27:38;;;;;;;40.10;26.00;;;;;;;;;;103636;1291;544789;-71
2024/01/06 10:31:15;;;;;;;60.20;35.40;;;;;;;;;;103723;1289;544843;-71
2024/01/06 10:34:53;;;;;;;50.20;30.20;;;;;;;;;;103442;1291;545189;-71
2024/01/06 10:38:31;;;;;;;128.40;68.80;;;;;;;;;;103607;1295;545082;-71
2024/01/06 10:42:08;;;;;;;47.30;29.60;;;;;;;;;;103759;1295;544917;-71
2024/01/06 10:45:45;;;;;;;41.30;25.50;;;;;;;;;;103530;1295;545494;-71
2024/01/06 10:49:23;;;;;;;56.70;37.40;;;;;;;;;;103603;1295;545357;-71
2024/01/06 10:53:01;;;;;;;70.50;48.20;;;;;;;;;;103763;1289;544741;-70
2024/01/06 10:56:41;;;;;;;60.60;38.50;;;;;;;;;;103681;1290;545710;-71
2024/01/06 11:00:21;;;;;;;62.80;41.20;;;;;;;;;;103611;1295;548129;-71
2024/01/06 11:03:54;;;;;;;46.50;29.20;;;;;;;;;;103601;1292;545758;-71
2024/01/06 11:07:27;;;;;;;52.60;31.50;;;;;;;;;;103769;1289;544808;-71
2024/01/06 11:11:07;;;;;;;71.90;48.20;;;;;;;;;;103856;1289;544985;-70
2024/01/06 11:14:46;;;;;;;55.50;31.90;;;;;;;;;;103716;1289;545834;-71
2024/01/06 11:18:37;;;;;;;37.40;24.30;;;;;;;;;;103687;1290;545225;-71
2024/01/06 11:21:56;;;;;;;66.30;37.50;;;;;;;;;;103783;1289;544919;-71
2024/01/06 11:25:40;;;;;;;74.00;38.60;;;;;;;;;;103840;1291;544910;-70
2024/01/06 11:29:11;;;;;;;55.60;32.70;;;;;;;;;;103583;1288;545726;-70
2024/01/06 11:32:58;;;;;;;50.90;30.90;;;;;;;;;;103607;1290;547803;-71
2024/01/06 11:36:30;;;;;;;48.60;31.90;;;;;;;;;;103830;1289;546389;-71
2024/01/06 11:40:03;;;;;;;40.90;26.60;;;;;;;;;;103895;1292;545336;-71
2024/01/06 11:43:46;;;;;;;36.00;22.80;;;;;;;;;;103376;1292;545615;-71
2024/01/06 11:47:30;;;;;;;37.20;23.40;;;;;;;;;;103315;1292;547926;-71
2024/01/06 11:51:00;;;;;;;44.10;27.70;;;;;;;;;;103924;1292;545028;-71
2024/01/06 11:54:37;;;;;;;43.40;29.30;;;;;;;;;;103523;1289;545680;-70
2024/01/06 11:58:16;;;;;;;40.10;25.30;;;;;;;;;;103857;1292;544743;-71
2024/01/06 12:01:47;;;;;;;46.20;29.30;;;;;;;;;;103754;1288;545242;-71
2024/01/06 12:05:29;;;;;;;51.40;31.50;;;;;;;;;;103820;1289;545621;-70
2024/01/06 12:09:04;;;;;;;34.60;23.80;;;;;;;;;;103879;1289;544828;-70
2024/01/06 12:12:54;;;;;;;33.10;22.40;;;;;;;;;;103831;1291;545365;-71
2024/01/06 12:16:22;;;;;;;38.20;23.10;;;;;;;;;;103785;1291;545007;-71
2024/01/06 12:19:59;;;;;;;32.60;22.70;;;;;;;;;;103690;1295;545023;-71
2024/01/06 12:23:36;;;;;;;39.50;27.20;;;;;;;;;;103797;1292;544755;-70
2024/01/06 12:27:13;;;;;;;41.40;27.40;;;;;;;;;;104293;1289;545804;-71
2024/01/06 12:30:52;;;;;;;44.00;28.60;;;;;;;;;;103674;1295;544995;-70
2024/01/06 12:34:30;;;;;;;39.50;24.80;;;;;;;;;;103676;1295;545029;-70
2024/01/06 12:38:12;;;;;;;62.00;34.90;;;;;;;;;;103467;1294;547912;-71
2024/01/06 12:41:44;;;;;;;60.80;34.60;;;;;;;;;;103841;1292;544805;-70
2024/01/06 12:45:21;;;;;;;57.40;33.50;;;;;;;;;;103565;1291;544962;-71
2024/01/06 12:48:58;;;;;;;45.00;28.90;;;;;;;;;;103676;1290;544987;-71
2024/01/06 12:52:37;;;;;;;43.20;27.20;;;;;;;;;;103611;1291;544901;-70
2024/01/06 12:56:10;;;;;;;41.30;26.40;;;;;;;;;;103821;1292;545716;-70
2024/01/06 12:59:51;;;;;;;45.90;27.30;;;;;;;;;;103596;1292;544805;-70
2024/01/06 13:03:29;;;;;;;51.90;31.30;;;;;;;;;;103794;1289;545061;-71
2024/01/06 13:07:11;;;;;;;77.70;41.00;;;;;;;;;;104031;1299;548389;-71
2024/01/06 13:10:43;;;;;;;72.00;37.50;;;;;;;;;;104595;1280;545163;-71
2024/01/06 13:14:21;;;;;;;46.50;30.90;;;;;;;;;;103758;1295;544908;-72
2024/01/06 13:17:58;;;;;;;49.80;31.50;;;;;;;;;;103779;1294;544782;-70
2024/01/06 13:21:39;;;;;;;52.10;33.30;;;;;;;;;;103694;1292;544847;-71
2024/01/06 13:25:13;;;;;;;48.90;31.60;;;;;;;;;;103772;1290;545744;-71
2024/01/06 13:28:50;;;;;;;46.30;30.90;;;;;;;;;;103777;1289;544963;-71
2024/01/06 13:32:29;;;;;;;45.70;30.80;;;;;;;;;;103706;1289;545174;-70
2024/01/06 13:36:06;;;;;;;49.90;33.30;;;;;;;;;;103617;1296;544982;-70
2024/01/06 13:39:43;;;;;;;51.50;34.60;;;;;;;;;;103823;1290;545723;-70
2024/01/06 13:43:20;;;;;;;59.60;36.50;;;;;;;;;;103774;1292;545541;-71
2024/01/06 13:46:57;;;;;;;52.40;35.20;;;;;;;;;;104081;1298;544821;-70
2024/01/06 13:50:32;;;;;;;49.90;33.00;;;;;;;;;;103701;1289;545110;-71
2024/01/06 13:54:13;;;;;;;49.80;31.70;;;;;;;;;;103673;1291;544960;-70
2024/01/06 13:57:50;;;;;;;73.00;46.70;;;;;;;;;;104313;1283;544920;-70
2024/01/06 14:01:24;;;;;;;55.50;37.00;;;;;;;;;;103797;1288;545579;-70
2024/01/06 14:05:08;;;;;;;63.70;39.70;;;;;;;;;;103405;1296;545367;-70
2024/01/06 14:08:43;;;;;;;76.00;47.00;;;;;;;;;;103768;1289;544729;-70
2024/01/06 14:12:20;;;;;;;68.90;42.40;;;;;;;;;;103631;1292;545540;-71
2024/01/06 14:15:58;;;;;;;63.70;40.00;;;;;;;;;;104204;1292;544730;-71
2024/01/06 14:19:35;;;;;;;62.10;39.60;;;;;;;;;;103751;1289;545124;-70
2024/01/06 14:23:13;;;;;;;67.90;44.20;;;;;;;;;;103774;1289;545020;-70
2024/01/06 14:26:52;;;;;;;68.90;43.70;;;;;;;;;;103588;1295;545747;-71
2024/01/06 14:30:29;;;;;;;60.60;40.30;;;;;;;;;;104290;1288;544632;-71
2024/01/06 14:34:05;;;;;;;67.40;42.10;;;;;;;;;;103600;1291;545048;-71
2024/01/06 14:37:43;;;;;;;75.60;45.10;;;;;;;;;;103709;1289;545007;-71
2024/01/06 14:41:20;;;;;;;104.00;64.40;;;;;;;;;;103674;1290;544926;-71
2024/01/06 14:44:58;;;;;;;77.80;48.90;;;;;;;;;;103858;1292;544984;-71
2024/01/06 14:48:35;;;;;;;97.20;61.70;;;;;;;;;;103727;1290;546013;-72
2024/01/06 14:52:13;;;;;;;83.60;52.80;;;;;;;;;;103774;1291;544763;-71
2024/01/06 14:55:50;;;;;;;130.40;82.80;;;;;;;;;;103585;1295;545652;-72
2024/01/06 14:59:30;;;;;;;148.80;76.80;;;;;;;;;;103769;1290;548335;-71
2024/01/06 15:03:05;;;;;;;147.70;76.60;;;;;;;;;;103915;1289;545562;-72
2024/01/06 15:06:43;;;;;;;130.00;65.30;;;;;;;;;;103678;1290;544999;-72
2024/01/06 15:10:20;;;;;;;70.80;44.00;;;;;;;;;;103790;1289;545634;-71
2024/01/06 15:13:53;;;;;;;84.20;50.10;;;;;;;;;;103601;1293;545049;-71
2024/01/06 15:17:34;;;;;;;103.30;53.80;;;;;;;;;;103706;1292;545706;-71
2024/01/06 15:21:14;;;;;;;77.80;46.70;;;;;;;;;;103687;1292;545578;-71
2024/01/06 15:24:50;;;;;;;76.50;46.80;;;;;;;;;;103541;1295;544615;-71
2024/01/06 15:28:27;;;;;;;75.70;46.50;;;;;;;;;;103879;1290;545002;-71
2024/01/06 15:32:05;;;;;;;77.80;48.60;;;;;;;;;;104673;1286;545716;-71
2024/01/06 15:35:42;;;;;;;109.50;64.90;;;;;;;;;;103728;1291;545531;-71
2024/01/06 15:39:19;;;;;;;90.30;52.70;;;;;;;;;;103686;1291;544899;-71
2024/01/06 15:42:58;;;;;;;73.00;44.80;;;;;;;;;;103732;1289;544738;-72
2024/01/06 15:46:34;;;;;;;102.10;62.10;;;;;;;;;;103784;1289;545445;-71
2024/01/06 15:50:12;;;;;;;71.80;44.60;;;;;;;;;;103799;1289;544970;-71
2024/01/06 15:53:49;;;;;;;82.00;46.20;;;;;;;;;;103683;1290;546081;-71
2024/01/06 15:57:23;;;;;;;78.00;44.20;;;;;;;;;;104048;1289;545054;-71
2024/01/06 16:01:05;;;;;;;64.90;38.10;;;;;;;;;;103563;1291;545958;-71
2024/01/06 16:04:42;;;;;;;66.60;39.80;;;;;;;;;;103710;1292;545671;-71
2024/01/06 16:08:19;;;;;;;65.60;40.00;;;;;;;;;;103835;1289;545334;-71
2024/01/06 16:11:58;;;;;;;60.60;37.90;;;;;;;;;;103726;1290;544848;-71
2024/01/06 16:15:34;;;;;;;64.10;41.70;;;;;;;;;;103744;1289;545084;-72
2024/01/06 16:19:11;;;;;;;72.80;43.30;;;;;;;;;;103707;1292;545732;-72
2024/01/06 16:22:50;;;;;;;78.00;48.10;;;;;;;;;;103695;1292;545663;-72
2024/01/06 16:26:26;;;;;;;84.10;54.40;;;;;;;;;;103730;1292;545464;-72
2024/01/06 16:30:04;;;;;;;69.90;44.40;;;;;;;;;;103693;1290;545221;-72
2024/01/06 16:33:42;;;;;;;61.70;40.60;;;;;;;;;;103774;1293;545300;-71
2024/01/06 16:37:19;;;;;;;191.00;91.50;;;;;;;;;;104115;1288;545085;-71
2024/01/06 16:40:56;;;;;;;223.40;110.50;;;;;;;;;;103859;1288;545557;-71
2024/01/06 16:44:34;;;;;;;170.20;79.40;;;;;;;;;;103505;1293;545640;-71
2024/01/06 16:48:08;;;;;;;57.70;35.90;;;;;;;;;;103933;1289;545091;-71
2024/01/06 16:51:55;;;;;;;86.90;44.80;;;;;;;;;;103635;1289;547804;-71
2024/01/06 16:55:23;;;;;;;101.40;52.40;;;;;;;;;;103763;1295;544734;-72
2024/01/06 16:59:04;;;;;;;62.80;37.10;;;;;;;;;;103695;1292;544994;-72
2024/01/06 17:02:42;;;;;;;57.00;34.90;;;;;;;;;;103751;1292;546119;-71
2024/01/06 17:06:18;;;;;;;62.20;37.80;;;;;;;;;;103699;1290;545529;-72
2024/01/06 17:10:02;;;;;;;69.10;40.80;;;;;;;;;;103521;1292;547829;-72
2024/01/06 17:13:35;;;;;;;68.90;41.10;;;;;;;;;;103515;1295;544828;-71
2024/01/06 17:17:11;;;;;;;67.20;40.10;;;;;;;;;;103776;1291;544852;-71
2024/01/06 17:20:48;;;;;;;63.40;36.00;;;;;;;;;;103606;1295;545465;-72
2024/01/06 17:24:35;;;;;;;52.20;33.60;;;;;;;;;;103575;1295;547811;-71
2024/01/06 17:28:04;;;;;;;56.40;34.70;;;;;;;;;;103684;1291;545397;-72
2024/01/06 17:31:42;;;;;;;60.70;37.20;;;;;;;;;;104016;1286;545316;-71
2024/01/06 17:35:18;;;;;;;53.60;33.70;;;;;;;;;;103646;1291;544672;-71
2024/01/06 17:38:55;;;;;;;58.80;36.20;;;;;;;;;;103794;1296;544772;-72
2024/01/06 17:42:33;;;;;;;82.00;44.90;;;;;;;;;;103672;1292;544811;-72
2024/01/06 17:46:11;;;;;;;62.20;37.00;;;;;;;;;;103759;1294;546469;-72
2024/01/06 17:49:48;;;;;;;80.80;44.60;;;;;;;;;;103857;1290;544859;-72
2024/01/06 17:53:21;;;;;;;115.70;57.40;;;;;;;;;;103952;1287;545753;-72
2024/01/06 17:57:06;;;;;;;99.20;48.60;;;;;;;;;;103689;1289;545218;-71
2024/01/06 18:00:40;;;;;;;89.40;44.40;;;;;;;;;;103698;1292;545247;-71
2024/01/06 18:04:18;;;;;;;85.80;41.90;;;;;;;;;;104048;1291;545482;-71
2024/01/06 18:07:56;;;;;;;86.70;43.90;;;;;;;;;;103772;1292;545489;-71
2024/01/06 18:11:33;;;;;;;112.80;73.50;;;;;;;;;;103564;1291;545002;-71
2024/01/06 18:15:11;;;;;;;143.10;108.90;;;;;;;;;;103823;1290;545490;-72
2024/01/06 18:18:44;;;;;;;94.50;58.30;;;;;;;;;;103871;1290;544744;-71
2024/01/06 18:22:26;;;;;;;74.30;43.70;;;;;;;;;;103797;1292;545609;-72
2024/01/06 18:25:59;;;;;;;68.00;44.50;;;;;;;;;;103891;1291;546014;-72
2024/01/06 18:29:47;;;;;;;61.40;35.70;;;;;;;;;;103670;1291;548672;-72
2024/01/06 18:33:18;;;;;;;48.30;29.90;;;;;;;;;;103750;1289;545228;-71
2024/01/06 18:36:56;;;;;;;65.30;38.90;;;;;;;;;;103802;1295;544792;-71
2024/01/06 18:40:33;;;;;;;47.80;29.30;;;;;;;;;;103791;1295;545083;-71
2024/01/06 18:44:11;;;;;;;57.10;38.10;;;;;;;;;;103787;1292;544711;-71
2024/01/06 18:48:07;;;;;;;47.70;29.50;;;;;;;;;;104015;1289;548127;-71
2024/01/06 18:51:22;;;;;;;47.60;28.70;;;;;;;;;;103776;1289;545118;-72
2024/01/06 18:55:03;;;;;;;50.00;30.20;;;;;;;;;;103752;1298;545584;-72
2024/01/06 18:58:40;;;;;;;53.80;31.00;;;;;;;;;;103823;1289;545055;-71
2024/01/06 19:02:18;;;;;;;50.80;32.00;;;;;;;;;;103734;1293;545593;-71
2024/01/06 19:05:55;;;;;;;58.80;41.10;;;;;;;;;;103894;1289;545449;-72
2024/01/06 19:09:34;;;;;;;53.70;32.40;;;;;;;;;;103814;1295;545982;-72
2024/01/06 19:13:10;;;;;;;52.50;34.20;;;;;;;;;;103961;1289;544993;-71
2024/01/06 19:16:47;;;;;;;70.00;44.40;;;;;;;;;;104510;1285;546304;-71
2024/01/06 19:20:23;;;;;;;58.40;38.40;;;;;;;;;;103880;1289;545010;-72
2024/01/06 19:24:03;;;;;;;65.10;39.40;;;;;;;;;;103793;1288;544891;-71
2024/01/06 19:27:35;;;;;;;59.20;36.90;;;;;;;;;;103883;1289;544988;-72
2024/01/06 19:31:17;;;;;;;49.50;33.10;;;;;;;;;;103851;1289;544997;-71
2024/01/06 19:34:55;;;;;;;51.60;32.10;;;;;;;;;;103978;1289;545756;-72
2024/01/06 19:38:31;;;;;;;44.70;28.70;;;;;;;;;;103865;1290;545485;-72
2024/01/06 19:42:07;;;;;;;56.20;38.30;;;;;;;;;;103851;1290;544944;-72
2024/01/06 19:45:47;;;;;;;44.70;28.50;;;;;;;;;;103740;1289;545701;-72
2024/01/06 19:49:20;;;;;;;45.60;29.10;;;;;;;;;;103893;1289;545776;-72
2024/01/06 19:53:02;;;;;;;44.20;27.70;;;;;;;;;;103799;1292;546175;-72
2024/01/06 19:56:39;;;;;;;50.80;31.30;;;;;;;;;;103932;1299;544841;-72
2024/01/06 20:00:14;;;;;;;47.30;30.20;;;;;;;;;;103642;1292;544897;-71
2024/01/06 20:03:55;;;;;;;44.10;27.40;;;;;;;;;;103569;1292;545701;-71
2024/01/06 20:07:32;;;;;;;39.70;26.10;;;;;;;;;;103702;1289;545677;-71
2024/01/06 20:11:10;;;;;;;52.70;32.00;;;;;;;;;;103743;1289;545652;-71
2024/01/06 20:14:46;;;;;;;47.10;29.10;;;;;;;;;;103639;1294;545425;-72
2024/01/06 20:18:29;;;;;;;58.10;34.60;;;;;;;;;;103943;1287;545521;-73
2024/01/06 20:22:04;;;;;;;39.80;25.20;;;;;;;;;;103469;1294;545097;-72
2024/01/06 20:25:42;;;;;;;41.80;26.20;;;;;;;;;;103707;1294;545338;-72